createdAt,value
2022-11-17T00:12:08.495Z,7.4
2022-11-17T00:22:05.100Z,7.4
2022-11-17T00:32:04.217Z,7.4
2022-11-17T00:42:03.041Z,7.5
2022-11-17T01:02:01.110Z,7.7
2022-11-17T01:11:59.979Z,7.6
2022-11-17T01:16:59.448Z,7.6
2022-11-17T01:26:58.406Z,7.5
2022-11-17T01:31:57.853Z,7.5
2022-11-17T01:36:57.356Z,7.5
2022-11-17T01:51:55.731Z,7.6
2022-11-17T02:01:54.828Z,7.7
2022-11-17T02:06:54.147Z,7.8
2022-11-17T02:11:53.708Z,7.8
2022-11-17T02:16:52.893Z,7.8
2022-11-17T02:21:52.364Z,7.8
2022-11-17T02:26:51.748Z,7.8
2022-11-17T02:31:51.220Z,7.7
2022-11-17T02:36:50.614Z,7.7
2022-11-17T02:46:49.478Z,7.7
2022-11-17T02:51:48.852Z,7.7
2022-11-17T03:01:47.805Z,7.7
2022-11-17T03:06:47.157Z,7.6
2022-11-17T03:11:46.619Z,7.6
2022-11-17T03:16:46.001Z,7.6
2022-11-17T03:21:45.435Z,7.6
2022-11-17T03:26:44.821Z,7.6
2022-11-17T03:36:43.692Z,7.6
2022-11-17T03:41:43.073Z,7.5
2022-11-17T03:46:42.496Z,7.5
2022-11-17T03:51:41.917Z,7.4
2022-11-17T04:01:40.825Z,7.4
2022-11-17T04:06:41.489Z,7.4
2022-11-17T04:11:39.657Z,7.5
2022-11-17T04:16:39.122Z,7.4
2022-11-17T04:26:37.883Z,7.4
2022-11-17T04:31:37.286Z,7.3
2022-11-17T04:46:35.597Z,7.3
2022-11-17T04:56:35.572Z,7.3
2022-11-17T05:01:34.055Z,7.3
2022-11-17T05:06:33.508Z,7.3
2022-11-17T05:16:32.384Z,7.2
2022-11-17T05:21:31.795Z,7.3
2022-11-17T05:26:31.529Z,7.2
2022-11-17T05:31:30.741Z,7.3
2022-11-17T05:36:30.316Z,7.3
2022-11-17T05:41:29.562Z,7.3
2022-11-17T05:46:29.058Z,7.3
2022-11-17T05:56:27.875Z,7.4
2022-11-17T06:06:26.727Z,7.4
2022-11-17T06:11:26.141Z,7.5
2022-11-17T06:16:25.681Z,7.5
2022-11-17T06:21:25.174Z,7.6
2022-11-17T06:26:24.656Z,7.6
2022-11-17T06:31:24.087Z,7.6
2022-11-17T06:36:23.623Z,7.5
2022-11-17T06:41:23.079Z,7.5
2022-11-17T06:46:22.628Z,7.5
2022-11-17T06:51:22.057Z,7.5
2022-11-17T06:56:21.609Z,7.5
2022-11-17T07:01:21.039Z,7.4
2022-11-17T07:11:20.147Z,7.5
2022-11-17T07:16:23.442Z,7.4
2022-11-17T07:21:18.976Z,7.4
2022-11-17T07:26:18.412Z,7.4
2022-11-17T07:31:17.931Z,7.4
2022-11-17T07:41:16.956Z,7.4
2022-11-17T07:46:16.450Z,7.3
2022-11-17T07:51:15.933Z,7.4
2022-11-17T08:01:15.136Z,7.3
2022-11-17T08:06:14.257Z,7.3
2022-11-17T08:11:13.757Z,7.3
2022-11-17T08:16:13.259Z,7.2
2022-11-17T08:21:12.715Z,7.3
2022-11-17T08:26:12.171Z,7.3
2022-11-17T08:31:11.718Z,7.4
2022-11-17T08:36:13.137Z,7.4
2022-11-17T08:41:10.581Z,7.4
2022-11-17T08:51:09.628Z,7.5
2022-11-17T08:56:09.036Z,7.6
2022-11-17T09:01:08.634Z,7.6
2022-11-17T09:06:08.080Z,7.7
2022-11-17T09:11:09.785Z,7.8
2022-11-17T09:16:07.010Z,7.9
2022-11-17T09:21:06.572Z,8.1
2022-11-17T09:26:07.900Z,8.2
2022-11-17T09:31:05.453Z,8.2
2022-11-17T09:36:04.840Z,8.3
2022-11-17T09:41:04.347Z,8.4
2022-11-17T09:51:03.253Z,8.6
2022-11-17T09:56:03.097Z,8.6
2022-11-17T10:01:02.326Z,8.7
2022-11-17T10:06:01.883Z,8.7
2022-11-17T10:11:01.544Z,8.7
2022-11-17T10:16:01.071Z,8.8
2022-11-17T10:26:00.317Z,8.9
2022-11-17T10:31:03.358Z,9.1
2022-11-17T10:35:59.574Z,9.2
2022-11-17T10:40:59.181Z,9.4
2022-11-17T10:50:58.380Z,9.6
2022-11-17T10:55:57.976Z,9.8
2022-11-17T11:05:57.360Z,10.0
2022-11-17T11:10:59.152Z,9.9
2022-11-17T11:15:56.913Z,10.2
2022-11-17T11:20:56.365Z,10.4
2022-11-17T11:25:56.289Z,10.6
2022-11-17T11:30:55.798Z,10.7
2022-11-17T11:35:55.507Z,10.8
2022-11-17T11:40:55.197Z,11.0
2022-11-17T11:45:55.025Z,11.1
2022-11-17T11:50:54.770Z,11.3
2022-11-17T11:55:54.475Z,11.1
2022-11-17T12:00:54.131Z,11.6
2022-11-17T12:05:53.928Z,11.6
2022-11-17T12:15:53.418Z,12.1
2022-11-17T12:20:53.181Z,12.2
2022-11-17T12:25:54.393Z,12.2
2022-11-17T12:30:52.619Z,11.9
2022-11-17T12:45:51.943Z,11.2
2022-11-17T12:50:51.619Z,11.8
2022-11-17T12:55:51.450Z,11.2
2022-11-17T13:10:50.461Z,10.8
2022-11-17T13:15:50.104Z,10.5
2022-11-17T13:20:49.883Z,10.6
2022-11-17T13:30:49.430Z,11.0
2022-11-17T13:35:49.013Z,10.8
2022-11-17T13:40:48.800Z,10.8
2022-11-17T13:45:48.426Z,10.8
2022-11-17T13:50:48.214Z,10.8
2022-11-17T13:55:47.856Z,10.9
2022-11-17T14:00:47.640Z,10.9
2022-11-17T14:05:47.283Z,10.8
2022-11-17T14:15:52.131Z,10.4
2022-11-17T14:20:46.395Z,10.2
2022-11-17T14:25:46.167Z,10.2
2022-11-17T14:30:45.830Z,10.1
2022-11-17T14:35:45.581Z,10.1
2022-11-17T14:40:45.065Z,10.2
2022-11-17T14:45:44.703Z,10.2
2022-11-17T14:50:44.334Z,10.4
2022-11-17T14:55:44.020Z,10.1
2022-11-17T15:00:43.636Z,10.1
2022-11-17T15:05:43.341Z,10.2
2022-11-17T15:10:45.147Z,10.1
2022-11-17T15:20:42.501Z,9.9
2022-11-17T15:25:42.009Z,9.8
2022-11-17T15:30:41.739Z,9.8
2022-11-17T15:35:41.403Z,9.6
2022-11-17T15:40:41.291Z,9.5
2022-11-17T15:45:40.632Z,9.5
2022-11-17T15:50:40.333Z,9.4
2022-11-17T15:55:39.894Z,9.2
2022-11-17T16:00:39.743Z,9.2
2022-11-17T16:05:39.076Z,9.2
2022-11-17T16:10:38.719Z,9.1
2022-11-17T16:15:38.264Z,9.0
2022-11-17T16:20:38.039Z,8.9
2022-11-17T16:25:37.426Z,8.8
2022-11-17T16:30:37.058Z,8.7
2022-11-17T16:35:36.669Z,8.5
2022-11-17T16:40:36.274Z,8.5
2022-11-17T16:45:35.803Z,8.5
2022-11-17T16:50:35.556Z,8.3
2022-11-17T17:05:36.485Z,8.2
2022-11-17T17:10:33.607Z,8.1
2022-11-17T17:20:32.751Z,8.1
2022-11-17T17:25:33.892Z,8.1
2022-11-17T17:35:31.407Z,8.1
2022-11-17T17:40:30.932Z,7.9
2022-11-17T17:45:30.567Z,7.9
2022-11-17T17:50:29.911Z,7.9
2022-11-17T18:00:28.988Z,7.8
2022-11-17T18:05:28.500Z,7.8
2022-11-17T18:10:28.376Z,7.8
2022-11-17T18:15:27.536Z,7.7
2022-11-17T18:20:29.527Z,7.6
2022-11-17T18:25:26.491Z,7.6
2022-11-17T18:30:26.156Z,7.6
2022-11-17T18:35:25.556Z,7.6
2022-11-17T18:40:25.111Z,7.5
2022-11-17T18:45:24.546Z,7.5
2022-11-17T18:50:24.074Z,7.5
2022-11-17T18:55:23.527Z,7.5
2022-11-17T19:00:23.012Z,7.6
2022-11-17T19:05:22.502Z,7.5
2022-11-17T19:10:22.014Z,7.6
2022-11-17T19:15:21.471Z,7.4
2022-11-17T19:20:20.984Z,7.6
2022-11-17T19:25:20.424Z,7.4
2022-11-17T19:30:20.015Z,7.4
2022-11-17T19:40:18.940Z,7.4
2022-11-17T19:45:18.476Z,7.4
2022-11-17T19:50:17.825Z,7.3
2022-11-17T19:55:17.198Z,7.4
2022-11-17T20:00:16.696Z,7.4
2022-11-17T20:05:16.133Z,7.3
2022-11-17T20:10:15.689Z,7.4
2022-11-17T20:15:33.181Z,7.4
2022-11-17T20:20:14.669Z,7.5
2022-11-17T20:25:14.572Z,7.5
2022-11-17T20:30:15.380Z,7.6
2022-11-17T20:35:13.080Z,7.6
2022-11-17T20:40:12.611Z,7.6
2022-11-17T20:45:12.055Z,7.7
2022-11-17T20:50:11.628Z,7.7
2022-11-17T20:54:10.088Z,7.7
2022-11-17T20:55:11.104Z,7.7
2022-11-17T21:00:10.640Z,7.7
2022-11-17T21:05:10.120Z,7.6
2022-11-17T21:10:09.594Z,7.6
2022-11-17T21:15:09.074Z,7.7
2022-11-17T21:20:08.764Z,7.7
2022-11-17T21:25:08.100Z,7.8
2022-11-17T21:30:07.651Z,7.8
2022-11-17T21:40:06.766Z,7.7
2022-11-17T21:50:05.722Z,7.7
2022-11-17T21:55:05.254Z,7.8
2022-11-17T22:00:04.793Z,7.7
2022-11-17T22:15:11.375Z,7.6
2022-11-17T22:20:02.869Z,7.7
2022-11-17T22:30:01.915Z,7.6
2022-11-17T22:49:59.987Z,7.6
2022-11-17T22:59:59.093Z,7.5
2022-11-17T23:14:59.049Z,7.6
2022-11-17T23:19:57.144Z,7.6
2022-11-17T23:24:56.695Z,7.6
2022-11-17T23:34:55.746Z,7.6
2022-11-17T23:39:55.236Z,7.6
2022-11-17T23:44:54.803Z,7.5
2022-11-17T23:49:54.266Z,7.6
2022-11-17T23:54:53.830Z,7.6
2022-11-17T23:59:53.333Z,7.5
